Time;durP1;ratioP1;P1;durP2;ratioP2;P2;SDS_P1;SDS_P2;PMS_P1;PMS_P2;Temp;Humidity;BMP_temperature;BMP_pressure;BME280_temperature;BME280_humidity;BME280_pressure;Samples;Min_cycle;Max_cycle;Signal;HPM_P1;HPM_P2
2021/10/19 00:00:07;;;;;;;9.38;6.70;;;13.00;92.00;;;;;;5055785;28;20410;-79
2021/10/19 00:02:32;;;;;;;12.23;6.78;;;13.00;91.90;;;;;;5056013;28;20025;-80
2021/10/19 00:04:58;;;;;;;8.63;7.28;;;13.00;91.90;;;;;;5056169;28;20090;-81
2021/10/19 00:07:24;;;;;;;9.27;7.10;;;12.90;92.10;;;;;;5038264;28;20108;-79
2021/10/19 00:09:50;;;;;;;8.63;6.70;;;12.90;92.00;;;;;;5038159;28;20025;-79
2021/10/19 00:12:16;;;;;;;7.90;6.65;;;12.90;92.00;;;;;;5054801;28;20525;-79
2021/10/19 00:14:41;;;;;;;7.95;6.53;;;12.90;92.00;;;;;;5056094;28;20387;-79
2021/10/19 00:17:07;;;;;;;7.32;6.53;;;12.90;92.00;;;;;;5038116;28;20476;-79
2021/10/19 00:19:33;;;;;;;12.00;7.25;;;12.90;92.10;;;;;;5038132;28;20099;-79
2021/10/19 00:21:59;;;;;;;8.55;6.80;;;12.90;91.90;;;;;;5038069;28;20479;-79
2021/10/19 00:24:25;;;;;;;7.38;6.57;;;12.90;91.90;;;;;;5055618;28;20033;-79
2021/10/19 00:26:50;;;;;;;10.40;6.90;;;12.90;91.70;;;;;;5037926;28;20044;-79
2021/10/19 00:29:16;;;;;;;9.43;7.20;;;12.90;92.30;;;;;;5055725;28;20106;-80
2021/10/19 00:31:44;;;;;;;7.57;6.55;;;12.90;91.60;;;;;;5037647;28;20021;-80
2021/10/19 00:34:10;;;;;;;11.05;6.80;;;12.90;91.80;;;;;;5054113;28;20033;-81
2021/10/19 00:36:36;;;;;;;7.85;6.95;;;12.80;91.80;;;;;;5054697;28;20392;-80
2021/10/19 00:39:02;;;;;;;7.70;6.57;;;12.80;91.80;;;;;;5055670;28;20043;-80
2021/10/19 00:41:29;;;;;;;10.50;6.38;;;12.80;91.80;;;;;;5055511;28;20032;-80
2021/10/19 00:43:55;;;;;;;8.82;7.20;;;12.80;91.80;;;;;;5055374;28;20029;-81
2021/10/19 00:46:21;;;;;;;8.38;7.00;;;12.80;91.60;;;;;;5055609;28;20534;-82
2021/10/19 00:48:47;;;;;;;7.07;6.38;;;12.80;91.70;;;;;;5037487;28;20037;-80
2021/10/19 00:51:15;;;;;;;10.52;7.22;;;12.80;91.80;;;;;;5054996;28;20036;-81
2021/10/19 00:53:41;;;;;;;9.73;6.45;;;12.80;91.60;;;;;;5037442;28;20444;-82
2021/10/19 00:56:08;;;;;;;7.15;6.40;;;12.80;91.60;;;;;;5055389;28;20029;-81
2021/10/19 00:58:36;;;;;;;10.07;6.50;;;12.80;91.40;;;;;;5055435;28;20049;-82
2021/10/19 01:01:02;;;;;;;9.07;6.95;;;12.80;91.40;;;;;;5054020;28;20044;-81
2021/10/19 01:03:28;;;;;;;9.23;7.10;;;12.80;91.50;;;;;;5055245;28;20037;-81
2021/10/19 01:05:53;;;;;;;9.70;6.88;;;12.80;91.60;;;;;;5054894;28;20036;-81
2021/10/19 01:08:19;;;;;;;11.00;7.10;;;12.80;91.60;;;;;;5055132;28;20013;-82
2021/10/19 01:10:45;;;;;;;10.48;6.80;;;12.80;91.60;;;;;;5055045;28;20025;-82
2021/10/19 01:13:12;;;;;;;8.48;6.93;;;12.80;91.70;;;;;;5055130;28;20437;-81
2021/10/19 01:15:38;;;;;;;11.15;6.90;;;12.70;91.90;;;;;;5037126;28;20112;-81
2021/10/19 01:18:03;;;;;;;8.40;6.85;;;12.60;92.00;;;;;;5037057;28;20462;-81
2021/10/19 01:20:38;;;;;;;7.60;6.90;;;12.60;92.00;;;;;;5054803;28;20116;-81
2021/10/19 01:23:04;;;;;;;9.38;7.15;;;12.50;92.10;;;;;;5036891;28;20057;-81
2021/10/19 01:25:32;;;;;;;8.05;6.60;;;12.50;92.30;;;;;;5054880;28;20116;-81
2021/10/19 01:28:01;;;;;;;10.10;7.30;;;12.50;92.50;;;;;;5054816;28;20021;-81
2021/10/19 01:30:27;;;;;;;7.85;7.05;;;12.40;92.50;;;;;;5054601;28;20048;-81
2021/10/19 01:32:54;;;;;;;9.48;7.50;;;12.40;92.30;;;;;;5054556;28;20100;-81
2021/10/19 01:35:37;;;;;;;11.05;7.80;;;12.40;92.50;;;;;;5054556;28;20021;-81
2021/10/19 01:38:03;;;;;;;11.10;7.45;;;12.40;92.50;;;;;;5055148;28;20021;-80
2021/10/19 01:40:29;;;;;;;10.05;7.80;;;12.40;92.50;;;;;;5037949;28;20102;-80
2021/10/19 01:42:55;;;;;;;8.43;6.97;;;12.40;92.50;;;;;;5053174;28;20471;-80
2021/10/19 01:45:21;;;;;;;8.18;6.85;;;12.40;92.40;;;;;;5055597;28;20036;-80
2021/10/19 01:47:46;;;;;;;8.88;6.72;;;12.40;92.30;;;;;;5057029;28;20032;-81
2021/10/19 01:50:14;;;;;;;8.85;7.28;;;12.40;92.40;;;;;;5037666;28;20061;-80
2021/10/19 01:52:41;;;;;;;9.70;7.40;;;12.40;92.40;;;;;;5054261;28;20048;-81
2021/10/19 01:55:08;;;;;;;8.15;7.25;;;12.30;92.50;;;;;;5036250;28;20025;-80
2021/10/19 01:57:35;;;;;;;10.35;7.22;;;12.30;92.70;;;;;;5053851;28;20094;-80
2021/10/19 02:00:01;;;;;;;8.43;7.18;;;12.30;92.70;;;;;;5053515;28;20110;-80
2021/10/19 02:02:27;;;;;;;7.65;6.85;;;12.20;92.90;;;;;;5036053;28;20108;-80
2021/10/19 02:04:53;;;;;;;8.15;6.82;;;12.20;92.90;;;;;;5053552;28;20196;-80
2021/10/19 02:07:21;;;;;;;8.02;6.88;;;12.20;93.00;;;;;;5055048;28;20407;-80
2021/10/19 02:09:46;;;;;;;10.18;7.18;;;12.20;92.70;;;;;;5035968;28;20067;-80
2021/10/19 02:12:12;;;;;;;7.47;6.78;;;12.20;92.80;;;;;;5035698;28;20025;-80
2021/10/19 02:14:38;;;;;;;8.15;6.90;;;12.20;92.90;;;;;;5053932;28;20096;-79
2021/10/19 02:17:03;;;;;;;11.68;7.15;;;12.20;92.90;;;;;;5035644;28;20477;-80
2021/10/19 02:19:29;;;;;;;8.43;7.07;;;12.10;92.90;;;;;;5053752;28;20491;-80
2021/10/19 02:21:56;;;;;;;9.15;6.93;;;12.10;93.10;;;;;;5035881;28;20127;-82
2021/10/19 02:24:22;;;;;;;8.38;7.07;;;12.10;93.10;;;;;;5053482;28;20033;-82
2021/10/19 02:26:49;;;;;;;10.10;7.22;;;12.10;93.00;;;;;;5053699;28;20051;-82
2021/10/19 02:29:16;;;;;;;9.10;6.70;;;12.20;93.00;;;;;;5053490;28;20028;-82
2021/10/19 02:31:41;;;;;;;8.27;7.38;;;12.20;92.80;;;;;;5053503;28;20032;-82
2021/10/19 02:34:08;;;;;;;14.95;7.07;;;12.30;92.80;;;;;;5035623;28;20028;-81
2021/10/19 02:36:34;;;;;;;7.85;6.60;;;12.20;92.90;;;;;;5035547;28;20078;-82
2021/10/19 02:39:00;;;;;;;9.80;7.40;;;12.30;92.70;;;;;;5053366;28;20053;-82
2021/10/19 02:41:26;;;;;;;7.97;6.68;;;12.30;92.70;;;;;;5053335;28;20021;-80
2021/10/19 02:43:52;;;;;;;11.02;6.50;;;12.30;92.50;;;;;;5053166;28;20505;-80
2021/10/19 02:46:20;;;;;;;8.30;6.80;;;12.30;92.60;;;;;;5053405;28;20028;-79
2021/10/19 02:48:46;;;;;;;7.68;6.40;;;12.20;92.70;;;;;;5053221;28;20383;-80
2021/10/19 02:51:11;;;;;;;6.78;6.07;;;12.20;92.50;;;;;;5053127;28;20021;-80
2021/10/19 02:53:37;;;;;;;9.07;6.95;;;12.20;92.70;;;;;;5035213;28;20028;-80
2021/10/19 02:56:03;;;;;;;8.63;6.70;;;12.20;92.60;;;;;;5053050;28;20056;-80
2021/10/19 02:58:29;;;;;;;9.43;6.35;;;12.20;92.60;;;;;;5050771;28;20400;-80
2021/10/19 03:00:54;;;;;;;9.18;6.57;;;12.20;92.70;;;;;;5052985;28;20025;-79
2021/10/19 03:03:20;;;;;;;7.60;6.35;;;12.10;92.90;;;;;;5053062;28;22331;-82
2021/10/19 03:05:46;;;;;;;9.52;6.78;;;12.10;93.00;;;;;;5053096;28;20025;-82
2021/10/19 03:08:11;;;;;;;7.95;7.15;;;12.10;93.00;;;;;;5034971;28;20361;-82
2021/10/19 03:10:37;;;;;;;8.07;6.65;;;12.10;93.00;;;;;;5035185;28;20021;-81
2021/10/19 03:13:03;;;;;;;9.75;7.20;;;12.00;93.50;;;;;;5052654;28;20215;-81
2021/10/19 03:15:28;;;;;;;8.57;6.63;;;12.00;93.50;;;;;;5052810;28;20036;-80
2021/10/19 03:17:54;;;;;;;8.70;6.72;;;12.00;93.40;;;;;;5051676;28;20029;-81
2021/10/19 03:20:20;;;;;;;8.75;6.72;;;12.00;93.50;;;;;;5052848;28;20021;-81
2021/10/19 03:22:46;;;;;;;9.40;7.22;;;11.90;93.70;;;;;;5052845;28;20028;-81
2021/10/19 03:25:11;;;;;;;11.52;6.88;;;11.90;93.90;;;;;;5052553;28;20079;-81
2021/10/19 03:27:37;;;;;;;8.68;6.72;;;11.90;93.90;;;;;;5034867;28;20029;-81
2021/10/19 03:30:04;;;;;;;8.05;6.63;;;12.00;93.60;;;;;;5052419;28;20040;-81
2021/10/19 03:32:30;;;;;;;7.00;6.30;;;11.90;93.70;;;;;;5052897;28;20116;-81
2021/10/19 03:34:56;;;;;;;8.30;5.82;;;11.90;93.40;;;;;;5052713;28;20451;-81
2021/10/19 03:37:22;;;;;;;8.20;6.57;;;12.00;93.20;;;;;;5052823;28;20021;-81
2021/10/19 03:39:48;;;;;;;6.68;6.07;;;12.00;93.10;;;;;;5051404;28;20021;-80
2021/10/19 03:42:13;;;;;;;8.43;6.35;;;12.00;93.30;;;;;;5052593;28;20464;-81
2021/10/19 03:44:39;;;;;;;9.68;7.03;;;12.00;93.20;;;;;;5052530;28;20033;-81
2021/10/19 03:47:05;;;;;;;9.48;6.22;;;11.90;93.40;;;;;;5052756;28;20021;-82
2021/10/19 03:49:30;;;;;;;8.50;6.30;;;11.90;93.50;;;;;;5034837;28;20025;-82
2021/10/19 03:51:56;;;;;;;8.05;6.50;;;11.90;93.60;;;;;;5052647;28;20421;-82
2021/10/19 03:54:21;;;;;;;7.47;6.07;;;11.80;93.70;;;;;;5034785;28;20056;-82
2021/10/19 03:56:47;;;;;;;8.77;6.40;;;11.80;93.70;;;;;;5034405;28;20028;-82
2021/10/19 03:59:13;;;;;;;8.88;6.43;;;11.80;93.80;;;;;;5051099;28;20057;-82
2021/10/19 04:01:39;;;;;;;8.45;5.85;;;11.70;93.90;;;;;;5052564;28;20023;-82
2021/10/19 04:04:04;;;;;;;7.30;5.85;;;11.70;93.60;;;;;;5052424;28;20104;-82
2021/10/19 04:06:30;;;;;;;8.50;6.00;;;11.80;93.50;;;;;;5052445;28;20051;-82
2021/10/19 04:08:56;;;;;;;7.68;5.95;;;11.80;93.60;;;;;;5052575;28;20066;-82
2021/10/19 04:11:22;;;;;;;11.15;6.07;;;11.80;93.60;;;;;;5056115;28;20020;-82
2021/10/19 04:13:47;;;;;;;7.32;6.20;;;11.80;93.60;;;;;;5056577;28;20021;-81
2021/10/19 04:16:13;;;;;;;8.10;6.20;;;11.80;93.70;;;;;;5056087;28;20089;-81
2021/10/19 04:18:39;;;;;;;7.35;6.38;;;11.80;93.90;;;;;;5056162;28;20021;-81
2021/10/19 04:21:04;;;;;;;9.18;6.60;;;11.80;93.60;;;;;;5055750;28;20479;-81
2021/10/19 04:23:30;;;;;;;8.52;6.70;;;11.80;93.70;;;;;;5055974;28;20040;-82
2021/10/19 04:25:56;;;;;;;8.55;6.20;;;11.80;93.50;;;;;;5055785;28;20060;-81
2021/10/19 04:28:22;;;;;;;7.70;6.05;;;11.80;93.20;;;;;;5037964;28;20369;-81
2021/10/19 04:30:50;;;;;;;7.38;6.22;;;11.90;93.00;;;;;;5055883;28;20079;-82
2021/10/19 04:33:16;;;;;;;7.45;5.93;;;11.90;93.10;;;;;;5055794;28;20066;-82
2021/10/19 04:35:42;;;;;;;7.55;5.85;;;12.00;93.10;;;;;;5055742;28;20029;-81
2021/10/19 04:38:08;;;;;;;6.55;5.95;;;12.00;93.50;;;;;;5037783;28;20029;-82
2021/10/19 04:40:33;;;;;;;7.60;6.75;;;11.90;93.60;;;;;;5055598;28;20433;-82
2021/10/19 04:43:00;;;;;;;9.93;6.88;;;11.90;93.40;;;;;;5055585;28;20021;-81
2021/10/19 04:45:27;;;;;;;7.97;6.40;;;11.90;93.60;;;;;;5037651;28;20037;-82
2021/10/19 04:47:57;;;;;;;8.93;6.65;;;11.90;93.60;;;;;;5037615;28;20017;-80
2021/10/19 04:50:23;;;;;;;11.75;7.07;;;11.80;93.60;;;;;;5055379;28;20507;-82
2021/10/19 04:52:49;;;;;;;7.18;5.90;;;11.80;93.70;;;;;;5056005;28;20021;-82
2021/10/19 04:55:14;;;;;;;8.40;6.43;;;11.80;93.80;;;;;;5055386;28;20143;-80
2021/10/19 04:57:40;;;;;;;7.78;6.97;;;11.70;93.90;;;;;;5055284;28;20116;-82
2021/10/19 05:00:07;;;;;;;8.10;6.40;;;11.70;94.00;;;;;;5055101;28;20048;-81
2021/10/19 05:02:32;;;;;;;9.20;6.78;;;11.70;94.20;;;;;;5055108;28;20032;-82
2021/10/19 05:04:58;;;;;;;10.20;7.10;;;11.70;94.10;;;;;;5037320;28;20033;-78
2021/10/19 05:07:24;;;;;;;9.02;6.05;;;11.60;94.30;;;;;;5037164;28;20025;-77
2021/10/19 05:09:53;;;;;;;8.35;7.32;;;11.60;94.20;;;;;;5055731;28;20028;-84
2021/10/19 05:12:18;;;;;;;8.00;7.13;;;11.60;94.40;;;;;;5039620;28;20021;-78
2021/10/19 05:14:44;;;;;;;7.85;6.53;;;11.60;94.70;;;;;;5055202;28;20075;-78
2021/10/19 05:17:10;;;;;;;6.90;5.70;;;11.50;94.40;;;;;;5055636;28;20067;-83
2021/10/19 05:19:36;;;;;;;7.00;6.22;;;11.50;94.50;;;;;;5055202;28;20370;-78
2021/10/19 05:22:01;;;;;;;8.35;6.43;;;11.50;94.50;;;;;;5054119;28;20020;-80
2021/10/19 05:24:27;;;;;;;7.20;6.43;;;11.50;94.30;;;;;;5054376;28;20544;-81
2021/10/19 05:26:53;;;;;;;7.82;6.00;;;11.50;94.40;;;;;;5055779;28;20116;-80
2021/10/19 05:29:18;;;;;;;7.82;6.35;;;11.50;94.20;;;;;;5036718;28;20372;-78
2021/10/19 05:31:44;;;;;;;8.75;6.90;;;11.50;94.40;;;;;;5053063;28;20025;-78
2021/10/19 05:34:09;;;;;;;11.10;6.60;;;11.50;94.40;;;;;;5036323;28;20032;-80
2021/10/19 05:36:36;;;;;;;8.70;6.82;;;11.50;94.70;;;;;;5054284;28;20100;-79
2021/10/19 05:39:02;;;;;;;11.63;7.15;;;11.50;94.80;;;;;;5054842;28;20021;-80
2021/10/19 05:41:28;;;;;;;14.95;7.30;;;11.50;94.90;;;;;;5054522;28;20072;-79
2021/10/19 05:43:53;;;;;;;6.95;6.25;;;11.50;94.80;;;;;;5054233;28;20029;-79
2021/10/19 05:46:19;;;;;;;8.98;6.38;;;11.50;94.50;;;;;;5055617;28;20024;-79
2021/10/19 05:48:45;;;;;;;7.45;6.38;;;11.50;94.60;;;;;;5036316;28;20463;-79
2021/10/19 05:51:10;;;;;;;10.05;5.97;;;11.50;94.80;;;;;;5054222;28;20029;-85
2021/10/19 05:53:36;;;;;;;8.32;6.88;;;11.60;95.20;;;;;;5054084;28;20480;-79
2021/10/19 05:56:02;;;;;;;13.02;7.40;;;11.60;95.00;;;;;;5054124;28;20025;-81
2021/10/19 05:58:28;;;;;;;9.73;7.18;;;11.60;94.80;;;;;;5053977;28;20021;-80
2021/10/19 06:00:53;;;;;;;8.57;6.50;;;11.60;94.80;;;;;;5054268;28;20384;-82
2021/10/19 06:03:19;;;;;;;9.00;6.40;;;11.70;94.50;;;;;;5053852;28;20025;-80
2021/10/19 06:05:46;;;;;;;11.15;6.88;;;11.80;94.50;;;;;;5054003;28;20029;-80
2021/10/19 06:08:11;;;;;;;10.35;6.75;;;11.90;94.40;;;;;;5053857;28;20028;-81
2021/10/19 06:10:37;;;;;;;9.45;6.05;;;12.00;93.70;;;;;;5035940;28;20116;-80
2021/10/19 06:13:03;;;;;;;13.50;6.93;;;12.10;93.70;;;;;;5035977;28;20029;-80
2021/10/19 06:15:28;;;;;;;12.27;6.40;;;12.20;93.40;;;;;;5053752;28;20066;-79
2021/10/19 06:17:54;;;;;;;9.02;6.60;;;12.40;93.40;;;;;;5053761;28;20495;-81
2021/10/19 06:20:20;;;;;;;11.98;6.65;;;12.40;93.60;;;;;;5035754;28;20025;-80
2021/10/19 06:22:46;;;;;;;13.40;6.97;;;12.50;93.60;;;;;;5053614;28;20119;-80
2021/10/19 06:25:12;;;;;;;7.57;6.70;;;12.60;93.70;;;;;;5053702;28;20446;-82
2021/10/19 06:27:38;;;;;;;12.02;6.45;;;12.70;92.70;;;;;;5053577;28;20044;-82
2021/10/19 06:30:05;;;;;;;8.15;6.90;;;12.90;92.60;;;;;;5035603;28;20036;-80
2021/10/19 06:32:31;;;;;;;10.80;7.03;;;12.90;92.40;;;;;;5035623;28;20024;-79
2021/10/19 06:34:57;;;;;;;9.18;6.20;;;13.00;92.70;;;;;;5053486;28;20480;-79
2021/10/19 06:37:23;;;;;;;9.25;6.90;;;13.10;92.00;;;;;;5053332;28;20359;-79
2021/10/19 06:39:49;;;;;;;8.48;6.40;;;13.10;92.30;;;;;;5053400;28;20028;-80
2021/10/19 06:42:14;;;;;;;10.93;6.60;;;13.20;92.50;;;;;;5053214;28;20021;-79
2021/10/19 06:44:40;;;;;;;8.27;6.45;;;13.30;91.90;;;;;;5053215;28;20071;-79
2021/10/19 06:47:06;;;;;;;10.10;5.80;;;13.40;91.70;;;;;;5053506;28;20421;-78
2021/10/19 06:49:31;;;;;;;9.18;6.15;;;13.50;91.50;;;;;;5053153;28;20032;-78
2021/10/19 06:51:57;;;;;;;10.25;6.07;;;13.50;91.60;;;;;;5053197;28;20025;-78
2021/10/19 06:54:23;;;;;;;8.23;6.43;;;13.60;91.70;;;;;;5053255;28;20495;-78
2021/10/19 06:56:48;;;;;;;8.32;6.80;;;13.70;91.10;;;;;;5053131;28;20421;-82
2021/10/19 06:59:14;;;;;;;17.98;7.43;;;13.70;91.70;;;;;;5053070;28;20068;-84
2021/10/19 07:01:40;;;;;;;13.77;7.97;;;13.80;91.50;;;;;;5035651;28;20037;-78
2021/10/19 07:04:05;;;;;;;14.75;6.82;;;13.80;92.40;;;;;;5052972;28;20079;-81
2021/10/19 07:06:31;;;;;;;13.90;7.15;;;13.90;91.70;;;;;;5052887;28;20111;-75
2021/10/19 07:08:57;;;;;;;10.48;7.93;;;14.00;91.70;;;;;;5052858;28;20029;-80
2021/10/19 07:11:26;;;;;;;11.45;7.97;;;14.10;91.40;;;;;;5054189;28;20036;-80
2021/10/19 07:13:55;;;;;;;9.85;7.43;;;14.20;91.50;;;;;;5055848;28;20024;-82
2021/10/19 07:16:21;;;;;;;11.60;7.40;;;14.40;91.10;;;;;;5053088;28;20095;-79
2021/10/19 07:18:47;;;;;;;13.18;7.38;;;14.50;90.70;;;;;;5053366;28;20021;-80
2021/10/19 07:21:13;;;;;;;9.75;6.68;;;14.70;90.80;;;;;;5053212;28;20028;-80
2021/10/19 07:23:39;;;;;;;12.68;7.55;;;14.70;90.20;;;;;;5054052;28;20032;-79
2021/10/19 07:26:05;;;;;;;11.73;8.50;;;14.80;90.30;;;;;;5053559;28;20021;-79
2021/10/19 07:28:31;;;;;;;14.55;7.97;;;14.80;90.30;;;;;;5052839;28;20032;-80
2021/10/19 07:30:57;;;;;;;12.05;7.25;;;14.80;90.10;;;;;;5053077;28;20125;-80
2021/10/19 07:33:23;;;;;;;15.73;7.97;;;14.70;90.30;;;;;;5036081;28;20040;-79
2021/10/19 07:35:48;;;;;;;15.02;7.60;;;14.80;90.10;;;;;;5034617;28;20379;-80
2021/10/19 07:38:15;;;;;;;13.95;7.20;;;14.80;90.30;;;;;;5052749;28;20387;-80
2021/10/19 07:40:44;;;;;;;9.00;7.13;;;14.80;90.60;;;;;;5052636;28;20435;-80
2021/10/19 07:43:09;;;;;;;9.63;7.45;;;14.90;90.00;;;;;;5052634;28;20372;-79
2021/10/19 07:45:36;;;;;;;12.20;7.20;;;14.90;89.90;;;;;;5055606;28;20043;-80
2021/10/19 07:48:02;;;;;;;10.88;7.78;;;14.90;90.00;;;;;;5056587;28;20052;-79
2021/10/19 07:50:29;;;;;;;9.88;7.38;;;14.90;89.70;;;;;;5056764;28;20475;-80
2021/10/19 07:52:57;;;;;;;13.98;7.10;;;15.00;89.90;;;;;;5056407;28;20410;-79
2021/10/19 07:55:24;;;;;;;10.88;7.40;;;15.00;90.10;;;;;;5056605;28;20082;-81
2021/10/19 07:57:52;;;;;;;19.10;7.20;;;15.10;88.40;;;;;;5038921;28;20041;-80
2021/10/19 08:00:26;;;;;;;14.27;7.25;;;15.10;88.90;;;;;;5056476;28;20458;-78
2021/10/19 08:02:53;;;;;;;15.00;7.00;;;15.20;89.10;;;;;;5055200;28;20123;-78
2021/10/19 08:05:19;;;;;;;8.88;6.47;;;15.20;88.00;;;;;;5056688;28;20037;-79
2021/10/19 08:07:47;;;;;;;10.20;6.60;;;15.20;88.60;;;;;;5056300;28;20490;-78
2021/10/19 08:10:17;;;;;;;9.48;6.22;;;15.20;88.30;;;;;;5055868;28;20025;-78
2021/10/19 08:12:43;;;;;;;8.00;6.10;;;15.30;88.00;;;;;;5054866;28;20119;-78
2021/10/19 08:15:10;;;;;;;7.90;6.03;;;15.30;86.60;;;;;;5056307;28;20107;-79
2021/10/19 08:17:35;;;;;;;7.82;5.50;;;15.40;86.40;;;;;;5056144;28;20056;-79
2021/10/19 08:20:02;;;;;;;13.25;5.55;;;15.40;82.20;;;;;;5056760;28;20032;-79
2021/10/19 08:22:29;;;;;;;7.30;5.53;;;15.50;85.40;;;;;;5038354;28;20025;-79
2021/10/19 08:24:56;;;;;;;5.40;4.90;;;15.70;85.90;;;;;;5055657;28;20036;-80
2021/10/19 08:27:25;;;;;;;12.63;5.25;;;15.90;81.90;;;;;;5055839;28;20387;-80
2021/10/19 08:29:51;;;;;;;5.57;4.03;;;16.00;82.40;;;;;;5055859;28;20483;-80
2021/10/19 08:32:17;;;;;;;6.82;4.30;;;16.10;79.30;;;;;;5055812;28;20047;-79
2021/10/19 08:34:43;;;;;;;7.05;3.72;;;16.20;81.50;;;;;;5055602;28;20550;-80
2021/10/19 08:37:08;;;;;;;10.05;4.72;;;16.30;79.70;;;;;;5055648;28;20104;-78
2021/10/19 08:39:34;;;;;;;8.48;4.35;;;16.30;80.80;;;;;;5055652;28;20098;-79
2021/10/19 08:42:01;;;;;;;8.85;4.57;;;16.30;80.70;;;;;;5055597;28;20025;-79
2021/10/19 08:44:27;;;;;;;5.88;3.97;;;16.40;76.40;;;;;;5054931;28;20083;-79
2021/10/19 08:46:53;;;;;;;5.45;3.70;;;16.50;76.80;;;;;;5037144;28;20109;-80
2021/10/19 08:49:19;;;;;;;10.07;4.10;;;16.50;75.60;;;;;;5055150;28;20052;-78
2021/10/19 08:51:45;;;;;;;7.22;3.90;;;16.50;77.90;;;;;;5037148;28;20035;-80
2021/10/19 08:54:11;;;;;;;5.32;4.00;;;16.50;68.90;;;;;;5054834;28;20060;-78
2021/10/19 08:56:38;;;;;;;5.43;3.92;;;16.50;72.80;;;;;;5053673;28;20513;-78
2021/10/19 08:59:04;;;;;;;7.97;3.75;;;16.60;74.90;;;;;;5036792;28;20049;-78
2021/10/19 09:01:40;;;;;;;6.13;3.72;;;16.60;73.30;;;;;;5055080;28;20079;-79
2021/10/19 09:04:08;;;;;;;4.90;3.97;;;16.70;76.00;;;;;;5055186;28;20033;-80
2021/10/19 09:06:35;;;;;;;6.22;3.90;;;17.10;71.70;;;;;;5055110;28;20027;-78
2021/10/19 09:09:07;;;;;;;14.63;4.32;;;17.10;71.80;;;;;;5054984;28;20123;-79
2021/10/19 09:11:53;;;;;;;6.83;3.50;;;17.00;71.70;;;;;;5036946;28;20044;-79
2021/10/19 09:14:21;;;;;;;9.23;4.60;;;17.00;70.90;;;;;;5036865;28;20354;-79
2021/10/19 09:16:51;;;;;;;13.07;4.88;;;17.00;72.20;;;;;;5054923;28;20039;-79
2021/10/19 09:19:20;;;;;;;11.43;5.82;;;16.90;71.60;;;;;;5054677;28;20391;-78
2021/10/19 09:21:48;;;;;;;8.50;4.97;;;17.00;73.10;;;;;;5054814;28;20384;-78
2021/10/19 09:24:14;;;;;;;7.50;5.20;;;17.00;75.30;;;;;;5054716;28;20067;-78
2021/10/19 09:26:52;;;;;;;7.43;5.05;;;16.90;77.50;;;;;;5054688;28;20025;-78
2021/10/19 09:29:18;;;;;;;14.57;6.22;;;16.70;78.10;;;;;;5054625;28;20025;-79
2021/10/19 09:31:44;;;;;;;10.80;6.53;;;16.50;79.80;;;;;;5054713;28;20108;-79
2021/10/19 09:34:13;;;;;;;10.35;6.10;;;16.40;81.20;;;;;;5036326;28;20065;-79
2021/10/19 09:36:39;;;;;;;6.68;5.93;;;16.40;83.90;;;;;;5054402;28;20102;-78
2021/10/19 09:39:05;;;;;;;7.75;5.75;;;16.50;80.30;;;;;;5054470;28;20025;-79
2021/10/19 09:41:41;;;;;;;11.65;6.03;;;16.50;84.00;;;;;;5054335;28;20035;-78
2021/10/19 09:44:16;;;;;;;12.18;5.82;;;16.60;83.30;;;;;;5054223;28;20116;-79
2021/10/19 09:46:42;;;;;;;7.72;6.38;;;16.70;84.00;;;;;;5054320;28;20375;-78
2021/10/19 09:49:09;;;;;;;10.00;6.40;;;16.80;84.00;;;;;;5054204;28;20426;-78
2021/10/19 09:51:38;;;;;;;13.07;6.03;;;16.90;83.90;;;;;;5054091;28;20079;-79
2021/10/19 09:54:12;;;;;;;10.13;5.90;;;17.00;84.00;;;;;;5036209;28;20032;-79
2021/10/19 09:56:40;;;;;;;9.85;5.75;;;17.10;83.70;;;;;;5054130;28;20054;-78
2021/10/19 09:59:06;;;;;;;8.35;5.05;;;17.10;82.60;;;;;;5053796;28;20045;-77
2021/10/19 10:01:36;;;;;;;8.80;5.38;;;17.10;80.20;;;;;;5052566;28;20039;-79
2021/10/19 10:04:03;;;;;;;10.60;6.07;;;17.10;80.10;;;;;;5053855;28;20116;-80
2021/10/19 10:06:30;;;;;;;12.18;6.25;;;17.00;82.60;;;;;;5053878;28;20032;-78
2021/10/19 10:08:59;;;;;;;6.95;5.60;;;17.00;84.00;;;;;;5053530;28;20032;-85
2021/10/19 10:11:25;;;;;;;9.90;6.07;;;17.00;84.60;;;;;;5053919;28;20391;-80
2021/10/19 10:13:59;;;;;;;9.68;5.97;;;17.10;82.30;;;;;;5035952;28;20028;-80
2021/10/19 10:16:26;;;;;;;8.05;5.15;;;17.10;84.20;;;;;;5053727;28;20402;-80
2021/10/19 10:18:52;;;;;;;8.75;6.28;;;17.10;82.40;;;;;;5053761;28;20028;-76
2021/10/19 10:21:21;;;;;;;7.63;5.60;;;17.30;81.80;;;;;;5053569;28;20017;-83
2021/10/19 10:24:05;;;;;;;6.03;5.35;;;17.30;82.10;;;;;;5053849;28;20033;-81
2021/10/19 10:26:34;;;;;;;9.32;6.20;;;17.40;81.00;;;;;;5053693;28;20049;-77
2021/10/19 10:29:35;;;;;;;6.90;5.65;;;17.50;81.70;;;;;;5035634;28;20333;-80
2021/10/19 10:32:01;;;;;;;8.00;5.63;;;17.70;82.30;;;;;;5053420;28;20021;-81
2021/10/19 10:34:30;;;;;;;8.30;5.57;;;17.80;81.60;;;;;;5053642;28;20369;-75
2021/10/19 10:37:11;;;;;;;7.43;5.40;;;18.00;78.60;;;;;;5055419;28;20051;-77
2021/10/19 10:39:45;;;;;;;8.13;5.28;;;18.20;77.80;;;;;;5054654;28;20045;-75
2021/10/19 10:42:11;;;;;;;6.85;5.03;;;18.20;77.70;;;;;;5053414;28;20471;-76
2021/10/19 10:44:43;;;;;;;6.60;5.47;;;18.10;74.90;;;;;;5035446;28;20029;-76
2021/10/19 10:47:09;;;;;;;8.52;4.85;;;18.00;75.30;;;;;;5053129;28;20062;-76
2021/10/19 10:49:36;;;;;;;5.65;4.70;;;17.90;73.10;;;;;;5053302;28;20040;-76
2021/10/19 10:52:12;;;;;;;8.82;5.25;;;17.80;75.90;;;;;;5053141;28;20020;-76
2021/10/19 10:54:38;;;;;;;8.05;5.20;;;17.90;75.00;;;;;;5035178;28;20456;-76
2021/10/19 10:57:03;;;;;;;7.55;4.38;;;17.90;74.20;;;;;;5052797;28;20098;-76
2021/10/19 10:59:33;;;;;;;6.57;4.97;;;18.00;70.80;;;;;;5052686;28;20171;-75
2021/10/19 11:02:09;;;;;;;8.80;5.25;;;18.00;71.50;;;;;;5053055;28;20021;-75
2021/10/19 11:04:52;;;;;;;8.48;5.75;;;17.90;72.90;;;;;;5052953;28;20025;-76
2021/10/19 11:07:45;;;;;;;7.05;5.57;;;17.90;73.70;;;;;;5052870;28;20147;-74
2021/10/19 11:10:15;;;;;;;10.05;6.18;;;18.30;76.50;;;;;;5050101;28;20108;-80
2021/10/19 11:12:42;;;;;;;10.75;5.82;;;18.60;73.50;;;;;;5051980;28;20021;-80
2021/10/19 11:15:18;;;;;;;6.38;5.70;;;18.80;73.80;;;;;;5052119;28;20021;-79
2021/10/19 11:17:45;;;;;;;7.55;5.50;;;19.10;71.40;;;;;;5035857;28;20032;-79
2021/10/19 11:20:11;;;;;;;9.40;6.22;;;19.10;69.50;;;;;;5034583;28;20032;-77
2021/10/19 11:22:37;;;;;;;8.43;5.50;;;19.40;68.70;;;;;;5052586;28;20025;-85
2021/10/19 11:25:04;;;;;;;9.95;5.63;;;19.40;68.50;;;;;;5036389;28;20503;-83
2021/10/19 11:27:30;;;;;;;10.13;5.53;;;19.60;69.90;;;;;;5053823;28;20490;-78
2021/10/19 11:29:57;;;;;;;9.10;5.68;;;20.10;68.20;;;;;;5035107;28;20454;-77
2021/10/19 11:32:24;;;;;;;12.00;6.65;;;20.10;69.10;;;;;;5037271;28;20101;-79
2021/10/19 11:34:50;;;;;;;9.88;5.78;;;20.00;70.00;;;;;;5034639;28;20443;-78
2021/10/19 11:37:16;;;;;;;18.95;6.35;;;20.20;69.40;;;;;;5052677;28;20049;-80
2021/10/19 11:39:41;;;;;;;9.88;5.63;;;20.20;69.90;;;;;;5052497;28;20040;-78
2021/10/19 11:42:07;;;;;;;17.23;6.32;;;20.00;69.20;;;;;;5052439;28;20094;-79
2021/10/19 11:44:36;;;;;;;15.27;6.03;;;20.20;67.60;;;;;;5052223;28;20071;-78
2021/10/19 11:47:04;;;;;;;19.45;6.80;;;19.90;69.50;;;;;;5052268;28;20025;-78
2021/10/19 11:49:32;;;;;;;15.35;5.70;;;19.90;70.80;;;;;;5052340;28;20048;-80
2021/10/19 11:51:59;;;;;;;15.07;5.32;;;19.80;68.20;;;;;;5052247;28;20033;-76
2021/10/19 11:54:25;;;;;;;11.02;5.00;;;19.80;69.80;;;;;;5052429;28;20028;-84
2021/10/19 11:57:01;;;;;;;11.52;5.25;;;19.90;69.20;;;;;;5052387;28;20049;-80
2021/10/19 11:59:38;;;;;;;11.07;4.60;;;20.00;68.90;;;;;;5051977;28;20136;-80
2021/10/19 12:02:07;;;;;;;10.70;4.85;;;19.80;66.40;;;;;;5052081;28;20095;-77
2021/10/19 12:04:42;;;;;;;7.47;5.10;;;19.90;68.20;;;;;;5052067;28;20068;-81
2021/10/19 12:07:08;;;;;;;11.88;5.40;;;20.30;67.90;;;;;;5052151;28;20467;-80
2021/10/19 12:09:36;;;;;;;7.47;5.07;;;20.50;67.90;;;;;;5051942;28;20039;-78
2021/10/19 12:12:03;;;;;;;8.73;5.43;;;21.00;67.30;;;;;;5052078;28;20047;-78
2021/10/19 12:14:39;;;;;;;12.75;5.13;;;21.20;64.80;;;;;;5034097;28;20036;-80
2021/10/19 12:17:06;;;;;;;6.60;4.85;;;20.50;65.70;;;;;;5034150;28;20017;-80
2021/10/19 12:19:33;;;;;;;6.45;4.88;;;20.10;68.00;;;;;;5052173;28;20437;-80
2021/10/19 12:22:03;;;;;;;7.65;4.43;;;20.20;68.80;;;;;;5052140;28;20021;-78
2021/10/19 12:24:34;;;;;;;8.73;4.72;;;21.20;66.80;;;;;;5052003;28;20029;-78
2021/10/19 12:27:02;;;;;;;7.47;5.22;;;21.60;65.10;;;;;;5052396;28;20025;-76
2021/10/19 12:29:30;;;;;;;6.07;5.20;;;21.10;66.70;;;;;;5051956;28;20017;-77
2021/10/19 12:31:56;;;;;;;6.80;4.82;;;20.40;67.40;;;;;;5036872;28;20025;-75
2021/10/19 12:34:25;;;;;;;8.48;5.30;;;19.60;69.30;;;;;;5055521;28;20017;-78
2021/10/19 12:36:52;;;;;;;8.02;5.18;;;19.40;70.80;;;;;;5037414;28;20025;-76
2021/10/19 12:39:19;;;;;;;7.20;5.38;;;19.90;71.60;;;;;;5055298;28;20017;-75
2021/10/19 12:41:46;;;;;;;7.28;5.75;;;20.40;69.30;;;;;;5055132;28;20223;-76